Earls Colne, United Kingdom
Current Conditions -  °F | °C
As of 7:50 AM on Saturday 29 Nov 2014 (Local Time) from EGUW Reporting Station
Haze Haze  
Wind Chill:   Ceiling: 12000
Heat Index:   Visibility: 6mi
Dew Point:   Wind: 9mph
Humidity: 93%   Direction: 120°ESE
Pressure: 29.83"   Gusts: NA
Location:  51.93°N, 0.7°E
Report Text: EGUW 290750Z AUTO 12008KT 9000 BR SCT006/// BKN120/// 09/08 Q1010
Loading
Personal Weather Stations






























Interactive Weather Map New forecast layout! Learn more

10-Day Weather Forecast

Advertisements
Track Severe Weather on mobile